Time;durP1;ratioP1;P1;durP2;ratioP2;P2;SDS_P1;SDS_P2;PMS_P1;PMS_P2;Temp;Humidity;BMP_temperature;BMP_pressure;BME280_temperature;BME280_humidity;BME280_pressure;Samples;Min_cycle;Max_cycle;Signal;HPM_P1;HPM_P2
2023/10/04 00:00:20;;;;;;;10.70;5.30;;;;;;;17.25;74.21;96940.96;111961;1244;22541;-83
2023/10/04 00:03:11;;;;;;;8.30;5.40;;;;;;;17.14;75.21;96947.27;111988;1244;22588;-83
2023/10/04 00:05:41;;;;;;;7.90;5.20;;;;;;;17.06;76.17;96949.11;111861;1244;107832;-82
2023/10/04 00:08:11;;;;;;;9.10;5.20;;;;;;;16.98;77.00;96948.90;112030;1244;22903;-82
2023/10/04 00:10:41;;;;;;;6.00;3.80;;;;;;;16.93;77.76;96957.24;111939;1244;22497;-82
2023/10/04 00:13:13;;;;;;;5.60;3.00;;;;;;;16.85;79.03;96956.17;111961;1244;24314;-82
2023/10/04 00:15:42;;;;;;;3.90;2.10;;;;;;;16.72;80.51;96957.76;111944;1244;37807;-83
2023/10/04 00:18:11;;;;;;;5.10;2.10;;;;;;;16.58;81.96;96955.93;111966;1243;22596;-83
2023/10/04 00:20:43;;;;;;;3.80;2.50;;;;;;;16.46;82.75;96963.39;111980;1244;23346;-84
2023/10/04 00:23:15;;;;;;;4.00;1.60;;;;;;;16.35;83.38;96976.44;111956;1244;23214;-80
2023/10/04 00:25:45;;;;;;;2.00;1.50;;;;;;;16.26;84.44;96982.02;111916;1244;63707;-83
2023/10/04 00:28:13;;;;;;;3.80;2.00;;;;;;;16.19;84.72;96978.19;111991;1240;22510;-82
2023/10/04 00:30:43;;;;;;;6.20;2.40;;;;;;;16.11;84.75;96978.34;111976;1244;22498;-83
2023/10/04 00:33:11;;;;;;;;;;;;;;;16.05;84.89;96966.92;112001;1244;25180;-81
2023/10/04 00:35:40;;;;;;;2.40;1.80;;;;;;;16.00;85.02;96970.82;111954;1244;53413;-81
2023/10/04 00:38:15;;;;;;;3.60;2.00;;;;;;;15.95;84.92;96964.98;112015;1244;25116;-82
2023/10/04 00:40:44;;;;;;;4.10;2.00;;;;;;;15.90;84.83;96960.68;111983;1244;22500;-82
2023/10/04 00:43:19;;;;;;;4.40;1.60;;;;;;;15.85;84.75;96963.00;111966;1244;23073;-81
2023/10/04 00:45:54;;;;;;;4.50;1.90;;;;;;;15.80;84.83;96965.64;110152;1244;2047507;-82
2023/10/04 00:48:29;;;;;;;3.10;1.60;;;;;;;15.82;84.84;96972.80;111968;1244;22561;-82
2023/10/04 00:51:00;;;;;;;4.10;1.80;;;;;;;15.81;84.63;96976.22;111973;1244;23720;-81
2023/10/04 00:53:29;;;;;;;5.60;2.00;;;;;;;15.80;84.49;96985.59;111954;1244;22495;-82
2023/10/04 00:55:58;;;;;;;3.80;1.90;;;;;;;15.76;84.23;97002.46;111859;1241;122458;-82
2023/10/04 00:58:28;;;;;;;2.90;1.90;;;;;;;15.68;83.94;97012.52;111986;1244;22579;-82
2023/10/04 01:00:56;;;;;;;2.70;1.60;;;;;;;15.62;83.90;97026.07;111990;1244;22536;-82
2023/10/04 01:03:30;;;;;;;3.10;1.80;;;;;;;15.56;83.64;97034.13;111951;1240;22507;-82
2023/10/04 01:06:09;;;;;;;5.60;2.50;;;;;;;15.49;83.79;97046.34;111880;1244;93378;-82
2023/10/04 01:08:40;;;;;;;2.80;1.60;;;;;;;15.41;83.85;97050.89;111974;1244;22525;-83
2023/10/04 01:11:10;;;;;;;3.90;2.00;;;;;;;15.34;84.00;97061.11;111981;1244;22510;-82
2023/10/04 01:13:40;;;;;;;3.80;2.00;;;;;;;15.31;84.11;97077.48;111968;1244;24200;-81
2023/10/04 01:16:11;;;;;;;4.40;2.00;;;;;;;15.27;83.85;97080.55;111889;1244;69825;-82
2023/10/04 01:18:40;;;;;;;4.00;1.90;;;;;;;15.23;83.89;97082.24;111969;1244;22512;-82
2023/10/04 01:21:10;;;;;;;3.20;2.00;;;;;;;15.20;83.94;97085.08;111999;1244;24179;-82
2023/10/04 01:23:41;;;;;;;3.70;1.90;;;;;;;15.17;84.07;97082.97;111995;1244;22543;-83
2023/10/04 01:26:10;;;;;;;4.50;2.40;;;;;;;15.14;84.23;97078.77;111963;1244;47221;-82
2023/10/04 01:28:40;;;;;;;3.80;2.00;;;;;;;15.13;84.48;97091.86;111996;1244;23865;-83
2023/10/04 01:31:08;;;;;;;4.40;2.50;;;;;;;15.14;84.33;97084.70;111761;1244;22604;-80
2023/10/04 01:33:37;;;;;;;4.00;2.20;;;;;;;15.13;84.68;97089.09;111638;1244;25414;-82
2023/10/04 01:36:08;;;;;;;5.30;2.60;;;;;;;15.09;84.74;97108.73;111964;1244;34430;-82
2023/10/04 01:38:38;;;;;;;4.80;1.90;;;;;;;15.06;84.65;97108.23;111980;1244;22538;-82
2023/10/04 01:41:05;;;;;;;;;;;;;;;15.03;84.67;97108.59;111990;1244;22605;-82
2023/10/04 01:43:36;;;;;;;4.80;2.40;;;;;;;15.03;85.02;97112.92;111955;1244;22546;-82
2023/10/04 01:46:07;;;;;;;3.90;2.30;;;;;;;15.03;85.00;97122.76;111934;1244;62785;-82
2023/10/04 01:48:36;;;;;;;4.40;2.30;;;;;;;15.02;85.04;97128.70;112000;1244;22509;-82
2023/10/04 01:51:09;;;;;;;4.70;2.50;;;;;;;15.00;84.99;97120.05;111981;1244;22513;-82
2023/10/04 01:53:42;;;;;;;5.90;2.40;;;;;;;14.98;85.41;97130.86;111994;1244;22517;-81
2023/10/04 01:56:13;;;;;;;5.30;2.90;;;;;;;14.97;85.73;97146.98;107883;1245;5106303;-81
2023/10/04 01:58:42;;;;;;;10.40;2.90;;;;;;;14.94;85.64;97154.98;111941;1244;22518;-82
2023/10/04 02:01:27;;;;;;;5.10;2.30;;;;;;;14.90;85.92;97149.30;111971;1244;25221;-81
2023/10/04 02:03:59;;;;;;;4.80;1.90;;;;;;;14.81;86.53;97153.67;111978;1244;25273;-81
2023/10/04 02:06:36;;;;;;;5.50;2.40;;;;;;;14.72;86.57;97159.04;112014;1244;61884;-82
2023/10/04 02:09:11;;;;;;;3.90;1.70;;;;;;;14.66;86.40;97161.39;111973;1244;23285;-81
2023/10/04 02:11:41;;;;;;;3.90;1.80;;;;;;;14.62;86.21;97172.11;111971;1244;22539;-81
2023/10/04 02:14:10;;;;;;;4.20;2.10;;;;;;;14.59;85.82;97170.94;111977;1244;24027;-82
2023/10/04 02:16:38;;;;;;;3.30;1.70;;;;;;;14.55;85.32;97185.89;111919;1244;45024;-81
2023/10/04 02:19:07;;;;;;;4.00;2.00;;;;;;;14.52;84.97;97183.27;111965;1244;22498;-82
2023/10/04 02:21:37;;;;;;;3.80;1.80;;;;;;;14.49;84.60;97187.67;111957;1244;22531;-81
2023/10/04 02:24:09;;;;;;;3.70;1.90;;;;;;;14.45;84.61;97192.95;111962;1244;23407;-83
2023/10/04 02:26:38;;;;;;;2.70;1.60;;;;;;;14.41;84.49;97196.89;110366;1244;2074563;-81
2023/10/04 02:29:14;;;;;;;5.10;2.10;;;;;;;14.37;84.45;97202.39;111964;1244;22498;-83
2023/10/04 02:31:44;;;;;;;3.90;2.00;;;;;;;14.35;84.29;97212.05;111981;1241;22537;-82
2023/10/04 02:34:19;;;;;;;5.20;2.10;;;;;;;14.32;84.18;97213.05;111958;1244;22616;-81
2023/10/04 02:36:51;;;;;;;5.20;1.80;;;;;;;14.29;83.96;97211.02;111916;1244;59846;-81
2023/10/04 02:39:27;;;;;;;3.60;1.90;;;;;;;14.23;84.04;97219.04;112016;1244;23729;-81
2023/10/04 02:41:56;;;;;;;4.70;2.00;;;;;;;14.15;84.16;97222.66;112018;1244;25280;-81
2023/10/04 02:44:24;;;;;;;4.60;2.10;;;;;;;14.12;84.24;97220.67;111999;1243;22505;-79
2023/10/04 02:46:55;;;;;;;4.30;1.90;;;;;;;14.09;84.50;97221.25;110192;1244;2315990;-81
2023/10/04 02:49:27;;;;;;;2.70;1.60;;;;;;;14.07;84.48;97218.48;111974;1244;22505;-81
2023/10/04 02:51:58;;;;;;;5.00;2.20;;;;;;;14.06;84.47;97226.81;111921;1244;22584;-81
2023/10/04 02:54:31;;;;;;;4.90;2.30;;;;;;;14.03;84.52;97239.97;111978;1244;23245;-81
2023/10/04 02:57:03;;;;;;;3.80;2.00;;;;;;;14.00;84.70;97249.34;111903;1244;48632;-81
2023/10/04 02:59:34;;;;;;;4.40;2.30;;;;;;;13.98;84.77;97249.75;111952;1244;22528;-82
2023/10/04 03:02:03;;;;;;;3.40;2.10;;;;;;;13.97;84.78;97262.13;111960;1244;22498;-82
2023/10/04 03:04:32;;;;;;;3.80;2.40;;;;;;;13.97;84.78;97259.56;111964;1244;24213;-82
2023/10/04 03:07:01;;;;;;;3.80;1.90;;;;;;;13.96;84.67;97261.65;111909;1244;44327;-82
2023/10/04 03:09:29;;;;;;;4.70;2.20;;;;;;;13.95;84.60;97268.02;111926;1244;23923;-79
2023/10/04 03:11:58;;;;;;;5.70;2.00;;;;;;;13.91;84.68;97261.64;111953;1244;22519;-81
2023/10/04 03:14:30;;;;;;;4.50;2.30;;;;;;;13.88;84.81;97270.59;111937;1244;22555;-81
2023/10/04 03:17:08;;;;;;;4.00;2.00;;;;;;;13.88;84.92;97273.89;110313;1244;2134072;-81
2023/10/04 03:19:37;;;;;;;3.30;1.60;;;;;;;13.88;84.88;97278.69;111952;1244;22515;-81
2023/10/04 03:22:13;;;;;;;4.70;1.90;;;;;;;13.88;84.87;97278.90;111939;1244;24195;-81
2023/10/04 03:24:46;;;;;;;3.40;1.80;;;;;;;13.87;84.80;97290.05;111935;1244;43550;-81
2023/10/04 03:27:24;;;;;;;4.90;1.90;;;;;;;13.88;84.72;97296.98;111921;1244;22671;-81
2023/10/04 03:29:57;;;;;;;3.50;2.00;;;;;;;13.91;84.77;97295.39;111951;1244;22538;-81
2023/10/04 03:32:29;;;;;;;3.50;1.80;;;;;;;13.91;84.54;97296.55;111947;1244;22499;-81
2023/10/04 03:34:57;;;;;;;3.40;1.90;;;;;;;13.92;84.52;97294.90;110579;1244;1770123;-81
2023/10/04 03:37:31;;;;;;;3.10;1.60;;;;;;;13.92;84.41;97297.66;111932;1243;23790;-81
2023/10/04 03:40:12;;;;;;;2.40;1.50;;;;;;;13.93;84.35;97296.65;111942;1244;24925;-81
2023/10/04 03:42:42;;;;;;;3.10;1.70;;;;;;;13.94;84.24;97303.73;111937;1244;22986;-81
2023/10/04 03:45:13;;;;;;;3.40;2.00;;;;;;;13.93;84.21;97300.11;111694;1244;51429;-81
2023/10/04 03:47:44;;;;;;;3.30;2.00;;;;;;;13.89;84.01;97292.48;111953;1244;25224;-81
2023/10/04 03:50:18;;;;;;;3.80;2.10;;;;;;;13.84;84.35;97307.30;111967;1244;22601;-81
2023/10/04 03:52:52;;;;;;;3.70;2.00;;;;;;;13.82;84.38;97307.86;111928;1244;22564;-81
2023/10/04 03:55:21;;;;;;;4.80;2.10;;;;;;;13.80;84.44;97310.21;111893;1244;51279;-81
2023/10/04 03:57:51;;;;;;;4.70;1.90;;;;;;;13.78;84.40;97313.52;111962;1244;22500;-81
2023/10/04 04:00:24;;;;;;;3.40;1.90;;;;;;;13.76;84.50;97320.75;111941;1244;24710;-81
2023/10/04 04:02:57;;;;;;;5.80;2.00;;;;;;;13.74;84.63;97321.63;111934;1244;22558;-81
2023/10/04 04:05:32;;;;;;;4.30;1.90;;;;;;;13.69;84.59;97317.25;109075;1244;3502201;-81
2023/10/04 04:08:00;;;;;;;3.10;1.80;;;;;;;13.64;84.51;97328.00;111932;1244;22618;-81
2023/10/04 04:10:34;;;;;;;4.00;1.90;;;;;;;13.60;84.58;97332.04;111938;1240;22536;-81
2023/10/04 04:13:11;;;;;;;4.80;2.10;;;;;;;13.55;84.71;97330.21;111943;1237;24268;-80
2023/10/04 04:15:40;;;;;;;3.10;1.80;;;;;;;13.49;84.52;97335.70;111800;1244;52419;-81
2023/10/04 04:18:20;;;;;;;3.90;1.90;;;;;;;13.47;84.55;97336.29;111946;1244;22548;-81
2023/10/04 04:20:49;;;;;;;3.10;1.80;;;;;;;13.44;84.66;97336.64;111970;1244;24185;-81
2023/10/04 04:23:25;;;;;;;2.70;1.60;;;;;;;13.43;84.48;97342.14;111948;1243;24037;-81
2023/10/04 04:25:59;;;;;;;3.70;2.20;;;;;;;13.37;84.49;97346.45;110373;1244;2000119;-81
2023/10/04 04:28:30;;;;;;;5.20;1.90;;;;;;;13.34;84.47;97349.91;111935;1244;22506;-81
2023/10/04 04:30:59;;;;;;;4.30;2.10;;;;;;;13.32;84.51;97353.02;111918;1244;23506;-81
2023/10/04 04:33:29;;;;;;;4.50;2.00;;;;;;;13.30;84.73;97354.75;111940;1244;25409;-81
2023/10/04 04:36:05;;;;;;;4.90;2.00;;;;;;;13.28;84.57;97361.00;111884;1244;42510;-81
2023/10/04 04:38:38;;;;;;;4.40;2.40;;;;;;;13.24;84.55;97363.52;111950;1244;22576;-81
2023/10/04 04:41:12;;;;;;;5.20;2.20;;;;;;;13.21;84.48;97362.73;111940;1244;22505;-81
2023/10/04 04:43:47;;;;;;;5.90;3.30;;;;;;;13.14;84.52;97361.27;111962;1244;22518;-81
2023/10/04 04:46:22;;;;;;;4.60;2.20;;;;;;;13.09;84.71;97365.27;111914;1244;51563;-81
2023/10/04 04:48:54;;;;;;;3.70;1.60;;;;;;;13.04;84.83;97373.55;111954;1244;22512;-81
2023/10/04 04:51:28;;;;;;;3.40;2.30;;;;;;;12.97;84.92;97375.36;111933;1240;25315;-81
2023/10/04 04:53:58;;;;;;;3.60;2.00;;;;;;;12.93;85.10;97378.89;111968;1244;24233;-81
2023/10/04 04:56:31;;;;;;;5.30;2.10;;;;;;;12.87;85.26;97383.81;111916;1244;50309;-81
2023/10/04 04:59:07;;;;;;;7.00;2.40;;;;;;;12.82;85.43;97382.78;111771;1244;22531;-81
2023/10/04 05:01:39;;;;;;;3.60;2.00;;;;;;;12.81;85.48;97383.54;111948;1243;25563;-81
2023/10/04 05:04:08;;;;;;;4.80;2.20;;;;;;;12.79;85.57;97387.63;111917;1244;22558;-81
2023/10/04 05:06:38;;;;;;;;;;;;;;;12.78;85.50;97393.16;111918;1244;31147;-81
2023/10/04 05:09:10;;;;;;;3.40;1.90;;;;;;;12.74;85.41;97395.59;111750;1244;22555;-80
2023/10/04 05:11:41;;;;;;;5.00;2.00;;;;;;;12.73;85.39;97403.84;111967;1240;22521;-79
2023/10/04 05:14:10;;;;;;;4.60;1.90;;;;;;;12.71;85.21;97404.17;111911;1244;25393;-81
2023/10/04 05:16:41;;;;;;;3.60;1.70;;;;;;;12.69;85.23;97410.09;111892;1244;45653;-81
2023/10/04 05:19:13;;;;;;;5.90;2.00;;;;;;;12.70;85.09;97413.64;111918;1244;22527;-80
2023/10/04 05:21:44;;;;;;;4.10;1.60;;;;;;;12.68;84.81;97415.14;111952;1244;22537;-81
2023/10/04 05:24:14;;;;;;;4.40;1.60;;;;;;;12.68;84.93;97415.52;111937;1244;22513;-81
2023/10/04 05:26:46;;;;;;;4.60;2.10;;;;;;;12.71;85.01;97421.24;111865;1244;39348;-81
2023/10/04 05:29:16;;;;;;;4.00;1.60;;;;;;;12.73;84.56;97429.75;111923;1244;22479;-80
2023/10/04 05:31:45;;;;;;;4.10;1.80;;;;;;;12.72;84.38;97435.77;111918;1244;22523;-81
2023/10/04 05:34:14;;;;;;;3.80;1.80;;;;;;;12.69;84.39;97440.47;111939;1244;22495;-81
2023/10/04 05:36:43;;;;;;;5.20;2.00;;;;;;;12.68;84.29;97442.92;111855;1244;87763;-81
2023/10/04 05:39:14;;;;;;;4.20;1.60;;;;;;;12.67;84.28;97443.14;111947;1241;22517;-81
2023/10/04 05:41:45;;;;;;;4.10;1.90;;;;;;;12.68;84.27;97450.48;111944;1244;25226;-81
2023/10/04 05:44:13;;;;;;;4.70;2.10;;;;;;;12.68;84.25;97452.77;111911;1244;22512;-81
2023/10/04 05:46:45;;;;;;;5.00;1.80;;;;;;;12.62;84.16;97455.95;111695;1244;79992;-80
2023/10/04 05:49:17;;;;;;;5.80;2.40;;;;;;;12.57;84.36;97469.39;111915;1244;22511;-80
2023/10/04 05:51:46;;;;;;;5.50;1.80;;;;;;;12.54;84.56;97478.12;111930;1244;22512;-81
2023/10/04 05:54:15;;;;;;;5.90;2.00;;;;;;;12.50;84.59;97481.14;111930;1244;23040;-81
2023/10/04 05:56:43;;;;;;;5.00;2.00;;;;;;;12.45;84.65;97485.04;111874;1244;100928;-81
2023/10/04 05:59:13;;;;;;;5.30;1.70;;;;;;;12.43;84.64;97491.22;111895;1244;22472;-81
2023/10/04 06:01:44;;;;;;;;;;;;;;;12.41;84.73;97498.30;111936;1244;22484;-81
2023/10/04 06:04:13;;;;;;;4.60;2.00;;;;;;;12.39;84.74;97497.88;111888;1244;24081;-80
2023/10/04 06:06:45;;;;;;;6.40;2.00;;;;;;;12.35;84.46;97507.80;111874;1244;40086;-81
2023/10/04 06:09:26;;;;;;;5.10;2.20;;;;;;;12.30;84.45;97514.52;111900;1240;23832;-81
2023/10/04 06:11:55;;;;;;;5.40;2.40;;;;;;;12.25;84.38;97522.23;111921;1244;23308;-81
2023/10/04 06:14:27;;;;;;;6.60;2.00;;;;;;;12.20;84.33;97528.34;111942;1244;24206;-81
2023/10/04 06:17:00;;;;;;;6.60;2.00;;;;;;;12.16;84.35;97537.96;111863;1244;83274;-81
2023/10/04 06:19:29;;;;;;;3.80;1.70;;;;;;;12.13;84.29;97544.88;111906;1244;22530;-81
2023/10/04 06:21:59;;;;;;;3.40;1.90;;;;;;;12.09;84.40;97542.46;111934;1244;22520;-81
2023/10/04 06:24:30;;;;;;;4.40;2.20;;;;;;;12.06;84.31;97550.65;111931;1244;22538;-81
2023/10/04 06:26:59;;;;;;;4.90;2.00;;;;;;;12.06;84.27;97557.24;111895;1244;45715;-81
2023/10/04 06:29:29;;;;;;;6.40;2.90;;;;;;;12.04;84.30;97563.46;111912;1244;22531;-81
2023/10/04 06:32:01;;;;;;;4.50;2.10;;;;;;;12.01;84.37;97567.61;111895;1244;22531;-81
2023/10/04 06:34:32;;;;;;;4.30;1.90;;;;;;;12.00;84.32;97569.11;111913;1244;25395;-81
2023/10/04 06:37:00;;;;;;;8.00;2.60;;;;;;;12.00;84.30;97576.55;111747;1244;63644;-82
2023/10/04 06:39:29;;;;;;;6.20;2.20;;;;;;;12.00;84.27;97579.09;111907;1244;22572;-81
2023/10/04 06:41:59;;;;;;;6.60;2.00;;;;;;;12.04;84.30;97583.08;111792;1244;23155;-81
2023/10/04 06:44:31;;;;;;;4.20;1.70;;;;;;;12.07;84.06;97581.00;111909;1244;22508;-81
2023/10/04 06:47:00;;;;;;;6.00;1.90;;;;;;;12.11;83.99;97592.56;111881;1243;36445;-81
2023/10/04 06:49:29;;;;;;;6.20;2.00;;;;;;;12.12;83.76;97594.21;111948;1244;22520;-81
2023/10/04 06:51:59;;;;;;;6.50;1.90;;;;;;;12.10;83.30;97595.36;111910;1244;22472;-81
2023/10/04 06:54:29;;;;;;;7.00;2.30;;;;;;;12.09;83.12;97597.75;111922;1244;22510;-81
2023/10/04 06:56:59;;;;;;;5.10;1.90;;;;;;;12.12;82.99;97603.14;111783;1244;100504;-81
2023/10/04 06:59:28;;;;;;;5.60;1.50;;;;;;;12.20;82.81;97598.20;111908;1244;22502;-81
2023/10/04 07:01:59;;;;;;;6.90;1.80;;;;;;;12.28;82.57;97604.34;111929;1244;22508;-81
2023/10/04 07:04:29;;;;;;;4.60;2.00;;;;;;;12.36;82.25;97607.95;111910;1244;22562;-81
2023/10/04 07:06:58;;;;;;;6.90;2.00;;;;;;;12.38;81.78;97611.40;111896;1244;47604;-81
2023/10/04 07:09:28;;;;;;;4.70;1.80;;;;;;;12.31;81.65;97610.02;111857;1244;22463;-81
2023/10/04 07:11:56;;;;;;;6.60;2.00;;;;;;;12.31;81.50;97614.17;111920;1244;22544;-81
2023/10/04 07:14:27;;;;;;;5.00;1.80;;;;;;;12.26;81.40;97621.09;111893;1244;22548;-80
2023/10/04 07:16:56;;;;;;;3.70;1.50;;;;;;;12.21;81.27;97617.23;111708;1244;83114;-81
2023/10/04 07:19:29;;;;;;;5.20;1.70;;;;;;;12.25;81.35;97622.73;111894;1244;26428;-80
2023/10/04 07:22:00;;;;;;;5.00;2.20;;;;;;;12.29;80.88;97619.55;111902;1244;25392;-80
2023/10/04 07:24:32;;;;;;;7.10;1.40;;;;;;;12.29;80.41;97614.92;111898;1244;22508;-80
2023/10/04 07:27:02;;;;;;;3.50;1.40;;;;;;;12.31;80.16;97620.23;111825;1244;100206;-81
2023/10/04 07:29:33;;;;;;;6.40;1.60;;;;;;;12.30;80.02;97611.35;111898;1244;22492;-81
2023/10/04 07:32:04;;;;;;;7.00;1.60;;;;;;;12.34;79.97;97616.83;111904;1244;22513;-81
2023/10/04 07:34:34;;;;;;;4.40;1.60;;;;;;;12.37;79.85;97617.67;111928;1244;24217;-81
2023/10/04 07:37:06;;;;;;;4.40;1.40;;;;;;;12.40;79.81;97616.11;111816;1244;77996;-81
2023/10/04 07:39:36;;;;;;;6.70;1.70;;;;;;;12.44;79.75;97612.27;111671;1244;283580;-80
2023/10/04 07:42:05;;;;;;;3.80;1.80;;;;;;;12.46;79.56;97612.80;111889;1244;23714;-80
2023/10/04 07:44:34;;;;;;;5.90;1.80;;;;;;;12.51;79.75;97613.23;111884;1244;23993;-81
2023/10/04 07:47:03;;;;;;;5.80;1.40;;;;;;;12.57;79.62;97616.48;111844;1244;69300;-81
2023/10/04 07:49:33;;;;;;;5.30;1.40;;;;;;;12.63;79.31;97612.69;111916;1244;22605;-81
2023/10/04 07:52:04;;;;;;;4.00;1.20;;;;;;;12.65;79.17;97620.41;111881;1244;25407;-81
2023/10/04 07:54:34;;;;;;;5.20;2.00;;;;;;;12.76;79.54;97624.13;111907;1244;22533;-81
2023/10/04 07:57:06;;;;;;;4.70;1.60;;;;;;;12.90;79.42;97619.71;111852;1241;36603;-80
2023/10/04 07:59:36;;;;;;;8.40;2.00;;;;;;;12.90;78.90;97619.02;111863;1244;22552;-81
2023/10/04 08:02:05;;;;;;;3.80;1.60;;;;;;;12.88;78.75;97621.09;111911;1244;22503;-81
2023/10/04 08:04:35;;;;;;;5.90;1.80;;;;;;;12.83;78.60;97623.71;111899;1244;22524;-81
2023/10/04 08:07:12;;;;;;;6.90;1.70;;;;;;;12.78;78.58;97610.84;111748;1244;50864;-81
2023/10/04 08:09:43;;;;;;;4.60;1.70;;;;;;;12.81;78.65;97620.45;111896;1244;22553;-81
2023/10/04 08:12:19;;;;;;;4.50;1.50;;;;;;;12.79;78.66;97615.98;111876;1244;23917;-81
2023/10/04 08:14:48;;;;;;;4.70;1.70;;;;;;;12.79;78.64;97608.37;111874;1244;22525;-81
2023/10/04 08:17:19;;;;;;;5.70;1.60;;;;;;;12.79;78.62;97614.33;111866;1240;22502;-81
2023/10/04 08:19:51;;;;;;;5.40;1.80;;;;;;;12.81;78.56;97612.59;111899;1244;22580;-78
2023/10/04 08:22:22;;;;;;;6.00;1.50;;;;;;;12.83;78.48;97611.21;111883;1244;22511;-81
2023/10/04 08:24:57;;;;;;;5.10;1.60;;;;;;;12.88;78.54;97614.70;111844;1244;42151;-80
2023/10/04 08:27:26;;;;;;;5.20;1.90;;;;;;;12.91;78.22;97619.11;111895;1244;24251;-81
2023/10/04 08:29:57;;;;;;;5.10;1.80;;;;;;;12.93;78.11;97616.13;111905;1244;22523;-81
2023/10/04 08:32:30;;;;;;;5.00;1.70;;;;;;;12.97;78.09;97618.84;111888;1244;22866;-81
2023/10/04 08:35:00;;;;;;;4.80;1.30;;;;;;;13.02;77.69;97621.50;111855;1244;53871;-81
2023/10/04 08:37:29;;;;;;;3.60;1.40;;;;;;;13.20;78.14;97618.34;111859;1244;25462;-81
2023/10/04 08:39:58;;;;;;;3.10;1.30;;;;;;;13.63;77.96;97617.09;111883;1244;26579;-81
2023/10/04 08:42:28;;;;;;;4.40;2.00;;;;;;;14.07;77.47;97614.54;111880;1244;22499;-81
2023/10/04 08:45:02;;;;;;;5.80;1.20;;;;;;;14.32;75.78;97609.21;111845;1244;49962;-81
2023/10/04 08:47:37;;;;;;;3.30;1.40;;;;;;;14.44;74.37;97616.30;111888;1241;24137;-80
2023/10/04 08:50:12;;;;;;;5.60;1.40;;;;;;;14.54;74.19;97617.89;111895;1244;22706;-81
2023/10/04 08:52:46;;;;;;;12.70;7.60;;;;;;;14.74;74.05;97617.63;111921;1244;26412;-81
2023/10/04 08:55:17;;;;;;;17.30;8.90;;;;;;;14.89;73.36;97614.50;111854;1244;51832;-81
2023/10/04 08:57:50;;;;;;;4.40;1.40;;;;;;;14.95;72.82;97611.36;111851;1244;22519;-82
2023/10/04 09:00:27;;;;;;;4.70;1.60;;;;;;;15.05;73.27;97605.44;111871;1241;25417;-81
2023/10/04 09:03:01;;;;;;;10.50;4.60;;;;;;;15.36;73.81;97607.25;111892;1240;25221;-81
2023/10/04 09:05:31;;;;;;;5.60;1.90;;;;;;;15.56;72.75;97604.98;111846;1244;54574;-81
2023/10/04 09:08:05;;;;;;;7.10;1.70;;;;;;;15.40;71.59;97601.64;111868;1244;22506;-82
2023/10/04 09:10:38;;;;;;;7.00;2.60;;;;;;;15.42;71.85;97607.02;111901;1244;22550;-82
2023/10/04 09:13:09;;;;;;;4.50;1.40;;;;;;;15.53;71.11;97602.58;111877;1244;22537;-81
2023/10/04 09:15:38;;;;;;;4.70;2.30;;;;;;;15.34;69.80;97605.02;111830;1244;84402;-82
2023/10/04 09:18:09;;;;;;;4.40;1.60;;;;;;;15.37;70.70;97614.98;111876;1244;22531;-82
2023/10/04 09:20:39;;;;;;;6.70;3.70;;;;;;;15.55;70.16;97613.81;111878;1238;22500;-81
2023/10/04 09:23:22;;;;;;;5.20;2.30;;;;;;;15.51;68.53;97610.55;111820;1244;22534;-82
2023/10/04 09:25:54;;;;;;;4.80;1.20;;;;;;;15.59;69.17;97622.23;111814;1244;55442;-80
2023/10/04 09:28:38;;;;;;;5.20;1.90;;;;;;;15.63;67.56;97619.61;111851;1244;22553;-82
2023/10/04 09:31:12;;;;;;;5.70;1.60;;;;;;;15.41;68.13;97623.98;111866;1234;22488;-81
2023/10/04 09:33:41;;;;;;;3.80;2.10;;;;;;;15.29;67.51;97616.84;111829;1244;22510;-80
2023/10/04 09:36:11;;;;;;;4.80;1.50;;;;;;;14.99;67.43;97615.27;111801;1241;52569;-81
2023/10/04 09:38:48;;;;;;;3.20;1.30;;;;;;;14.72;67.36;97607.06;111870;1244;22502;-81
2023/10/04 09:41:19;;;;;;;2.50;1.30;;;;;;;14.60;67.87;97601.25;111832;1244;25221;-81
2023/10/04 09:43:51;;;;;;;3.00;1.20;;;;;;;14.85;68.61;97586.40;111837;1239;22509;-81
2023/10/04 09:46:21;;;;;;;3.40;1.60;;;;;;;15.01;67.99;97579.09;111827;1244;79654;-81
2023/10/04 09:48:49;;;;;;;4.50;1.60;;;;;;;14.97;68.09;97573.69;111869;1228;23183;-82
2023/10/04 09:51:21;;;;;;;4.60;1.60;;;;;;;15.19;68.38;97565.76;111899;1244;22770;-81
2023/10/04 09:53:53;;;;;;;3.50;1.60;;;;;;;15.44;68.17;97570.23;111907;1244;22514;-81
2023/10/04 09:56:24;;;;;;;3.60;1.40;;;;;;;15.64;67.87;97565.35;111832;1244;36145;-81
2023/10/04 09:58:55;;;;;;;6.60;1.40;;;;;;;15.75;67.07;97561.63;111868;1244;23727;-82
2023/10/04 10:01:28;;;;;;;3.80;2.00;;;;;;;15.80;67.06;97559.64;111869;1244;22498;-81
2023/10/04 10:04:11;;;;;;;2.90;1.60;;;;;;;15.97;67.01;97560.22;111884;1244;23208;-82
2023/10/04 10:06:50;;;;;;;7.60;1.40;;;;;;;16.14;66.69;97553.65;111840;1244;37984;-81
2023/10/04 10:09:23;;;;;;;3.80;1.60;;;;;;;16.06;64.68;97553.07;111865;1244;22987;-81
2023/10/04 10:11:55;;;;;;;7.10;1.40;;;;;;;16.01;64.43;97554.67;111870;1244;22584;-81
2023/10/04 10:14:27;;;;;;;4.50;1.50;;;;;;;15.97;63.68;97558.23;111861;1244;22497;-81
2023/10/04 10:16:58;;;;;;;2.60;1.40;;;;;;;16.03;64.43;97557.14;111833;1244;39385;-82
2023/10/04 10:19:29;;;;;;;3.00;1.30;;;;;;;16.18;63.90;97548.56;111813;1244;22638;-80
2023/10/04 10:22:06;;;;;;;4.50;2.30;;;;;;;16.19;63.35;97549.84;111890;1244;22703;-81
2023/10/04 10:24:49;;;;;;;4.80;1.90;;;;;;;16.12;62.62;97554.80;111887;1244;22588;-81
2023/10/04 10:27:22;;;;;;;4.00;1.80;;;;;;;16.07;62.15;97551.67;111850;1244;22499;-81
2023/10/04 10:29:57;;;;;;;4.00;1.50;;;;;;;16.18;62.61;97559.21;111879;1244;22491;-81
2023/10/04 10:32:26;;;;;;;3.80;1.30;;;;;;;16.30;62.03;97549.75;111836;1244;22494;-81
2023/10/04 10:35:05;;;;;;;4.60;1.60;;;;;;;16.32;60.86;97552.36;111791;1232;72077;-80
2023/10/04 10:37:38;;;;;;;2.70;1.20;;;;;;;16.33;60.30;97554.48;111530;1244;22505;-81
2023/10/04 10:40:32;;;;;;;2.90;1.20;;;;;;;16.51;60.78;97558.85;111855;1241;22511;-81
2023/10/04 10:43:11;;;;;;;2.60;1.50;;;;;;;16.63;60.35;97551.37;111852;1244;24077;-81
2023/10/04 10:45:39;;;;;;;2.90;1.10;;;;;;;16.51;59.41;97558.04;111844;1240;53566;-81
2023/10/04 10:48:13;;;;;;;3.90;1.30;;;;;;;16.25;59.01;97559.09;111828;1244;22523;-81
2023/10/04 10:50:43;;;;;;;4.30;1.30;;;;;;;15.89;59.03;97554.70;111884;1244;23527;-81
2023/10/04 10:53:12;;;;;;;2.00;1.10;;;;;;;15.59;59.43;97550.54;111852;1244;22586;-81
2023/10/04 10:55:42;;;;;;;3.00;1.50;;;;;;;15.57;59.95;97547.95;111779;1244;99763;-81
2023/10/04 10:58:12;;;;;;;4.60;1.50;;;;;;;15.72;60.33;97554.77;111911;1244;24194;-81
2023/10/04 11:00:42;;;;;;;4.20;1.60;;;;;;;15.68;60.21;97550.81;111861;1240;22509;-81
2023/10/04 11:03:13;;;;;;;;;;;;;;;15.66;60.14;97552.83;111859;1244;24173;-80
2023/10/04 11:05:44;;;;;;;3.00;1.60;;;;;;;15.49;59.54;97556.22;111790;1244;59094;-80
2023/10/04 11:08:15;;;;;;;5.70;1.40;;;;;;;15.34;60.03;97557.99;111852;1244;22541;-80
2023/10/04 11:10:47;;;;;;;4.20;1.20;;;;;;;15.47;60.66;97557.79;111908;1244;22504;-81
2023/10/04 11:13:18;;;;;;;2.90;1.30;;;;;;;15.57;60.53;97555.11;111793;1244;22515;-81
2023/10/04 11:15:47;;;;;;;3.70;1.40;;;;;;;15.51;60.68;97561.45;111766;1244;132011;-80
2023/10/04 11:18:16;;;;;;;4.60;1.30;;;;;;;15.43;60.72;97563.02;111795;1244;25600;-81
2023/10/04 11:20:47;;;;;;;5.10;1.70;;;;;;;15.39;60.79;97565.58;111871;1230;22527;-82
2023/10/04 11:23:16;;;;;;;4.90;1.40;;;;;;;15.32;60.84;97569.23;111838;1241;24223;-81
2023/10/04 11:25:45;;;;;;;2.90;1.40;;;;;;;15.27;61.18;97566.80;111816;1244;49499;-82
2023/10/04 11:28:14;;;;;;;4.60;1.40;;;;;;;15.23;61.38;97568.30;111901;1244;22510;-82
2023/10/04 11:30:42;;;;;;;4.40;1.40;;;;;;;15.21;61.34;97568.58;111857;1244;22549;-82
2023/10/04 11:33:23;;;;;;;3.50;1.40;;;;;;;15.20;61.39;97566.08;111849;1244;22473;-82
2023/10/04 11:35:55;;;;;;;3.60;1.80;;;;;;;15.10;61.03;97571.15;111813;1229;73959;-82
2023/10/04 11:38:27;;;;;;;2.70;1.50;;;;;;;15.02;60.95;97568.71;111864;1244;26703;-81
2023/10/04 11:40:57;;;;;;;2.80;1.50;;;;;;;15.02;60.96;97568.71;111857;1244;25270;-81
2023/10/04 11:43:26;;;;;;;;;;;;;;;15.12;61.01;97563.43;111880;1244;22483;-82
2023/10/04 11:46:01;;;;;;;2.70;1.30;;;;;;;15.18;61.09;97565.70;111838;1244;50668;-81